createdAt,value
2022-11-16T00:02:11.958Z,7.20
2022-11-16T00:04:46.261Z,7.20
2022-11-16T00:07:20.479Z,7.20
2022-11-16T00:09:55.501Z,7.20
2022-11-16T00:12:30.823Z,7.20
2022-11-16T00:15:12.504Z,7.20
2022-11-16T00:17:47.654Z,7.20
2022-11-16T00:20:21.872Z,7.10
2022-11-16T00:22:56.583Z,7.20
2022-11-16T00:25:31.813Z,7.20
2022-11-16T00:28:06.799Z,7.10
2022-11-16T00:30:44.590Z,7.10
2022-11-16T00:33:19.955Z,7.10
2022-11-16T00:35:54.831Z,7.10
2022-11-16T00:38:28.369Z,7.90
2022-11-16T00:41:01.861Z,7.10
2022-11-16T00:43:39.701Z,7.10
2022-11-16T00:46:17.476Z,7.10
2022-11-16T00:48:53.842Z,7.10
2022-11-16T00:51:28.498Z,7.10
2022-11-16T00:54:03.169Z,7.10
2022-11-16T00:56:39.205Z,7.10
2022-11-16T00:59:16.930Z,7.10
2022-11-16T01:01:54.420Z,7.10
2022-11-16T01:04:30.115Z,7.10
2022-11-16T01:07:06.975Z,7.10
2022-11-16T01:09:41.426Z,7.10
2022-11-16T01:12:14.233Z,7.10
2022-11-16T01:14:48.788Z,7.10
2022-11-16T01:17:25.768Z,7.10
2022-11-16T01:20:00.151Z,7.10
2022-11-16T01:22:34.759Z,7.10
2022-11-16T01:25:09.314Z,7.10
2022-11-16T01:27:44.312Z,7.10
2022-11-16T01:30:24.983Z,7.10
2022-11-16T01:33:15.507Z,7.20
2022-11-16T01:35:49.806Z,7.20
2022-11-16T01:38:29.840Z,7.20
2022-11-16T01:41:04.096Z,7.20
2022-11-16T01:43:52.248Z,7.30
2022-11-16T01:46:29.046Z,7.30
2022-11-16T01:49:09.256Z,7.30
2022-11-16T01:51:43.870Z,7.30
2022-11-16T01:54:20.710Z,7.30
2022-11-16T01:57:06.480Z,7.30
2022-11-16T01:59:48.840Z,7.40
2022-11-16T02:02:27.794Z,7.40
2022-11-16T02:05:08.073Z,7.40
2022-11-16T02:08:10.237Z,7.40
2022-11-16T02:10:46.434Z,7.40
2022-11-16T02:13:24.636Z,7.40
2022-11-16T02:16:00.980Z,7.60
2022-11-16T02:18:41.448Z,7.60
2022-11-16T02:21:22.812Z,7.40
2022-11-16T02:24:15.151Z,7.30
2022-11-16T02:26:58.921Z,7.40
2022-11-16T02:29:39.149Z,7.40
2022-11-16T02:32:13.409Z,7.40
2022-11-16T02:34:48.410Z,7.40
2022-11-16T02:37:21.916Z,7.30
2022-11-16T02:39:56.860Z,7.30
2022-11-16T02:42:33.085Z,7.40
2022-11-16T02:45:11.752Z,7.70
2022-11-16T02:47:47.902Z,7.40
2022-11-16T02:50:22.254Z,7.30
2022-11-16T02:52:57.143Z,7.30
2022-11-16T02:55:31.985Z,7.30
2022-11-16T02:58:06.991Z,7.30
2022-11-16T03:00:39.700Z,7.30
2022-11-16T03:03:19.364Z,7.20
2022-11-16T03:05:53.064Z,7.20
2022-11-16T03:08:30.194Z,7.20
2022-11-16T03:11:20.339Z,7.20
2022-11-16T03:13:56.722Z,7.20
2022-11-16T03:16:31.223Z,7.20
2022-11-16T03:19:08.592Z,7.10
2022-11-16T03:21:43.810Z,7.00
2022-11-16T03:24:18.068Z,7.00
2022-11-16T03:26:57.727Z,7.10
2022-11-16T03:29:39.790Z,6.90
2022-11-16T03:32:16.987Z,6.80
2022-11-16T03:34:57.751Z,6.80
2022-11-16T03:37:36.722Z,6.70
2022-11-16T03:40:13.245Z,6.60
2022-11-16T03:42:47.069Z,6.50
2022-11-16T03:45:23.452Z,6.50
2022-11-16T03:48:00.551Z,6.40
2022-11-16T03:50:39.267Z,6.40
2022-11-16T03:53:12.749Z,6.30
2022-11-16T03:55:49.982Z,6.30
2022-11-16T03:58:22.919Z,6.20
2022-11-16T04:00:56.626Z,6.20
2022-11-16T04:03:31.708Z,6.20
2022-11-16T04:06:23.654Z,6.10
2022-11-16T04:09:10.699Z,6.10
2022-11-16T04:11:58.220Z,6.10
2022-11-16T04:14:44.393Z,6.10
2022-11-16T04:17:33.921Z,6.00
2022-11-16T04:20:23.645Z,6.00
2022-11-16T04:23:15.499Z,6.00
2022-11-16T04:25:49.979Z,6.00
2022-11-16T04:28:23.736Z,6.00
2022-11-16T04:31:13.961Z,5.90
2022-11-16T04:33:54.563Z,5.90
2022-11-16T04:36:42.298Z,5.90
2022-11-16T04:39:21.553Z,5.90
2022-11-16T04:42:08.175Z,5.90
2022-11-16T04:44:54.519Z,5.90
2022-11-16T04:47:32.205Z,5.90
2022-11-16T04:50:06.238Z,5.90
2022-11-16T04:52:40.832Z,5.90
2022-11-16T04:55:21.425Z,5.80
2022-11-16T04:57:57.069Z,5.80
2022-11-16T05:00:31.978Z,5.80
2022-11-16T05:03:12.506Z,5.80
2022-11-16T05:05:44.694Z,5.80
2022-11-16T05:08:19.711Z,5.80
2022-11-16T05:10:58.982Z,5.80
2022-11-16T05:13:34.291Z,5.80
2022-11-16T05:16:10.354Z,5.80
2022-11-16T05:18:43.289Z,5.80
2022-11-16T05:21:16.961Z,5.80
2022-11-16T05:24:04.601Z,5.80
2022-11-16T05:26:43.575Z,5.80
2022-11-16T05:29:17.849Z,5.80
2022-11-16T05:31:52.174Z,5.80
2022-11-16T05:34:25.419Z,6.80
2022-11-16T05:36:57.904Z,5.80
2022-11-16T05:39:32.747Z,5.80
2022-11-16T05:42:10.460Z,5.80
2022-11-16T05:44:45.467Z,5.80
2022-11-16T05:47:19.681Z,5.80
2022-11-16T05:49:54.670Z,5.90
2022-11-16T05:52:29.814Z,5.80
2022-11-16T05:55:09.464Z,5.80
2022-11-16T05:57:54.126Z,5.90
2022-11-16T06:00:28.403Z,5.90
2022-11-16T06:03:08.994Z,5.90
2022-11-16T06:05:43.119Z,5.90
2022-11-16T06:08:20.077Z,5.90
2022-11-16T06:10:57.323Z,5.90
2022-11-16T06:13:35.181Z,5.90
2022-11-16T06:16:10.380Z,5.90
2022-11-16T06:18:45.694Z,5.90
2022-11-16T06:21:22.821Z,5.90
2022-11-16T06:23:57.557Z,5.90
2022-11-16T06:26:31.869Z,6.00
2022-11-16T06:29:09.217Z,6.00
2022-11-16T06:31:42.920Z,6.00
2022-11-16T06:34:16.884Z,6.00
2022-11-16T06:36:50.843Z,6.00
2022-11-16T06:39:24.915Z,6.00
2022-11-16T06:42:00.144Z,6.10
2022-11-16T06:44:37.516Z,6.10
2022-11-16T06:47:19.308Z,6.10
2022-11-16T06:49:55.566Z,6.10
2022-11-16T06:52:31.526Z,6.10
2022-11-16T06:55:06.480Z,6.00
2022-11-16T06:57:43.233Z,6.00
2022-11-16T07:00:20.283Z,6.10
2022-11-16T07:03:00.825Z,6.10
2022-11-16T07:05:39.315Z,6.10
2022-11-16T07:08:23.106Z,6.10
2022-11-16T07:11:00.215Z,6.10
2022-11-16T07:13:38.480Z,6.20
2022-11-16T07:16:14.864Z,6.20
2022-11-16T07:18:59.923Z,6.20
2022-11-16T07:21:40.674Z,6.20
2022-11-16T07:24:20.605Z,6.20
2022-11-16T07:26:55.374Z,6.20
2022-11-16T07:29:34.253Z,6.20
2022-11-16T07:32:20.876Z,6.30
2022-11-16T07:35:08.560Z,6.30
2022-11-16T07:37:47.898Z,6.30
2022-11-16T07:40:29.165Z,6.30
2022-11-16T07:43:02.975Z,6.30
2022-11-16T07:45:53.478Z,7.20
2022-11-16T07:48:28.046Z,6.30
2022-11-16T07:51:21.797Z,6.40
2022-11-16T07:54:19.049Z,6.40
2022-11-16T07:56:53.590Z,6.40
2022-11-16T07:59:28.836Z,6.40
2022-11-16T08:02:03.747Z,6.80
2022-11-16T08:04:39.673Z,6.40
2022-11-16T08:07:17.933Z,6.40
2022-11-16T08:10:04.110Z,6.40
2022-11-16T08:12:38.007Z,6.40
2022-11-16T08:15:16.453Z,6.40
2022-11-16T08:17:51.811Z,6.40
2022-11-16T08:20:27.798Z,6.40
2022-11-16T08:23:03.163Z,6.40
2022-11-16T08:25:45.534Z,6.40
2022-11-16T08:28:20.699Z,6.40
2022-11-16T08:30:56.297Z,6.40
2022-11-16T08:33:32.216Z,6.40
2022-11-16T08:36:12.584Z,6.40
2022-11-16T08:38:51.132Z,6.40
2022-11-16T08:41:32.435Z,6.40
2022-11-16T08:44:09.438Z,6.50
2022-11-16T08:46:49.311Z,6.50
2022-11-16T08:49:32.553Z,6.40
2022-11-16T08:52:07.550Z,6.50
2022-11-16T08:54:42.916Z,6.50
2022-11-16T08:57:21.451Z,6.40
2022-11-16T09:00:05.025Z,6.40
2022-11-16T09:02:40.105Z,6.40
2022-11-16T09:05:17.800Z,6.50
2022-11-16T09:07:51.861Z,6.50
2022-11-16T09:10:26.362Z,6.50
2022-11-16T09:13:03.695Z,7.20
2022-11-16T09:15:41.371Z,6.40
2022-11-16T09:18:17.579Z,6.50
2022-11-16T09:20:52.666Z,6.50
2022-11-16T09:23:27.425Z,6.50
2022-11-16T09:26:03.661Z,6.50
2022-11-16T09:28:38.340Z,6.50
2022-11-16T09:31:18.989Z,6.50
2022-11-16T09:33:58.797Z,6.50
2022-11-16T09:36:33.512Z,6.50
2022-11-16T09:39:29.609Z,6.50
2022-11-16T09:42:04.857Z,6.50
2022-11-16T09:44:45.363Z,6.50
2022-11-16T09:47:22.794Z,6.50
2022-11-16T09:50:03.006Z,6.50
2022-11-16T09:52:40.598Z,6.40
2022-11-16T09:55:22.847Z,6.40
2022-11-16T09:57:57.729Z,6.40
2022-11-16T10:00:32.772Z,6.40
2022-11-16T10:03:13.625Z,6.40
2022-11-16T10:05:51.841Z,6.40
2022-11-16T10:08:27.463Z,6.30
2022-11-16T10:11:03.152Z,6.30
2022-11-16T10:13:41.549Z,6.30
2022-11-16T10:16:19.775Z,6.30
2022-11-16T10:18:59.306Z,6.20
2022-11-16T10:21:41.115Z,6.20
2022-11-16T10:24:27.894Z,6.20
2022-11-16T10:27:21.803Z,6.20
2022-11-16T10:29:58.948Z,6.20
2022-11-16T10:32:33.779Z,6.20
2022-11-16T10:35:26.466Z,6.20
2022-11-16T10:38:04.339Z,6.20
2022-11-16T10:40:39.530Z,6.20
2022-11-16T10:43:14.818Z,6.20
2022-11-16T10:45:56.134Z,6.20
2022-11-16T10:48:37.591Z,6.20
2022-11-16T10:51:15.546Z,6.20
2022-11-16T10:53:50.786Z,6.10
2022-11-16T10:56:26.110Z,6.10
2022-11-16T10:59:02.140Z,6.10
2022-11-16T11:01:37.534Z,6.20
2022-11-16T11:04:22.413Z,6.20
2022-11-16T11:06:59.938Z,6.20
2022-11-16T11:09:34.908Z,6.20
2022-11-16T11:12:29.267Z,6.20
2022-11-16T11:15:08.442Z,6.20
2022-11-16T11:17:41.504Z,6.20
2022-11-16T11:20:23.509Z,6.20
2022-11-16T11:22:59.669Z,6.20
2022-11-16T11:25:34.921Z,6.20
2022-11-16T11:28:09.865Z,6.90
2022-11-16T11:30:48.368Z,6.30
2022-11-16T11:33:24.772Z,6.20
2022-11-16T11:36:03.937Z,6.30
2022-11-16T11:39:00.796Z,6.20
2022-11-16T11:41:36.787Z,6.30
2022-11-16T11:44:17.960Z,6.30
2022-11-16T11:49:50.562Z,6.30
2022-11-16T11:52:26.750Z,6.30
2022-11-16T11:55:04.296Z,6.30
2022-11-16T11:57:39.602Z,6.30
2022-11-16T12:00:16.334Z,6.30
2022-11-16T12:02:56.289Z,6.30
2022-11-16T12:05:35.314Z,6.20
2022-11-16T12:08:15.043Z,6.20
2022-11-16T12:10:53.941Z,6.20
2022-11-16T12:13:38.211Z,6.20
2022-11-16T12:16:16.051Z,6.20
2022-11-16T12:18:54.198Z,6.10
2022-11-16T12:21:32.383Z,6.10
2022-11-16T12:24:15.456Z,6.10
2022-11-16T12:26:54.304Z,6.10
2022-11-16T12:29:29.775Z,6.10
2022-11-16T12:32:06.776Z,6.10
2022-11-16T12:34:45.094Z,6.10
2022-11-16T12:37:19.259Z,6.10
2022-11-16T12:39:56.648Z,6.10
2022-11-16T12:42:36.379Z,6.10
2022-11-16T12:45:31.878Z,6.10
2022-11-16T12:48:02.830Z,6.10
2022-11-16T12:50:41.436Z,6.10
2022-11-16T12:53:21.519Z,6.10
2022-11-16T12:55:55.607Z,6.10
2022-11-16T12:58:34.931Z,6.10
2022-11-16T13:01:13.039Z,6.10
2022-11-16T13:03:48.205Z,6.10
2022-11-16T13:06:24.259Z,6.10
2022-11-16T13:09:00.849Z,6.10
2022-11-16T13:11:36.804Z,6.10
2022-11-16T13:14:14.848Z,6.10
2022-11-16T13:16:49.490Z,6.10
2022-11-16T13:19:24.415Z,6.10
2022-11-16T13:22:00.172Z,6.10
2022-11-16T13:24:37.544Z,6.10
2022-11-16T13:27:25.168Z,6.10
2022-11-16T13:30:03.091Z,6.10
2022-11-16T13:32:42.440Z,6.10
2022-11-16T13:35:17.296Z,6.10
2022-11-16T13:37:52.583Z,6.10
2022-11-16T13:40:28.130Z,6.10
2022-11-16T13:43:04.499Z,6.10
2022-11-16T13:45:39.189Z,6.10
2022-11-16T13:48:22.549Z,6.10
2022-11-16T13:50:58.528Z,6.10
2022-11-16T13:56:31.524Z,6.10
2022-11-16T13:59:05.361Z,6.10
2022-11-16T14:01:54.147Z,6.10
2022-11-16T14:04:24.954Z,6.10
2022-11-16T14:07:03.069Z,6.20
2022-11-16T14:09:46.852Z,6.20
2022-11-16T14:12:36.204Z,6.20
2022-11-16T14:15:16.047Z,6.20
2022-11-16T14:17:57.863Z,6.20
2022-11-16T14:20:28.821Z,6.20
2022-11-16T14:23:08.933Z,6.20
2022-11-16T14:25:43.959Z,6.20
2022-11-16T14:28:35.699Z,6.20
2022-11-16T14:31:12.352Z,6.20
2022-11-16T14:33:46.022Z,6.20
2022-11-16T14:36:20.155Z,6.20
2022-11-16T14:38:50.672Z,6.20
2022-11-16T14:41:27.385Z,6.20
2022-11-16T14:44:01.316Z,6.10
2022-11-16T14:46:36.318Z,6.20
2022-11-16T14:49:10.204Z,6.10
2022-11-16T14:51:45.159Z,6.10
2022-11-16T14:54:19.228Z,6.10
2022-11-16T14:57:02.217Z,6.10
2022-11-16T14:59:35.915Z,6.10
2022-11-16T15:02:15.828Z,6.10
2022-11-16T15:04:49.691Z,6.00
2022-11-16T15:07:25.425Z,6.00
2022-11-16T15:09:59.532Z,6.00
2022-11-16T15:12:52.374Z,6.00
2022-11-16T15:15:26.878Z,6.00
2022-11-16T15:18:10.242Z,6.00
2022-11-16T15:20:50.678Z,6.00
2022-11-16T15:23:30.483Z,6.00
2022-11-16T15:26:05.164Z,6.00
2022-11-16T15:28:48.750Z,5.90
2022-11-16T15:31:24.301Z,5.90
2022-11-16T15:33:57.843Z,5.90
2022-11-16T15:36:34.410Z,5.90
2022-11-16T15:39:09.522Z,5.90
2022-11-16T15:41:42.613Z,5.90
2022-11-16T15:44:20.601Z,5.80
2022-11-16T15:46:53.770Z,5.80
2022-11-16T15:49:30.811Z,5.80
2022-11-16T15:52:01.700Z,6.20
2022-11-16T15:54:56.536Z,5.20
2022-11-16T15:57:30.446Z,5.80
2022-11-16T16:00:07.580Z,5.80
2022-11-16T16:02:42.056Z,5.80
2022-11-16T16:05:24.085Z,5.80
2022-11-16T16:07:59.950Z,5.80
2022-11-16T16:10:34.119Z,5.80
2022-11-16T16:13:22.682Z,5.80
2022-11-16T16:16:11.628Z,5.80
2022-11-16T16:18:48.663Z,5.80
2022-11-16T16:21:23.143Z,5.80
2022-11-16T16:23:57.279Z,5.80
2022-11-16T16:26:31.176Z,5.80
2022-11-16T16:29:04.981Z,5.80
2022-11-16T16:31:39.143Z,5.70
2022-11-16T16:34:19.122Z,5.80
2022-11-16T16:36:53.020Z,5.80
2022-11-16T16:39:27.154Z,5.80
2022-11-16T16:42:01.439Z,5.80
2022-11-16T16:44:34.837Z,5.80
2022-11-16T16:47:09.331Z,5.70
2022-11-16T16:49:44.211Z,5.70
2022-11-16T16:52:18.302Z,5.70
2022-11-16T16:54:51.791Z,5.70
2022-11-16T16:57:26.235Z,5.70
2022-11-16T16:59:59.219Z,5.60
2022-11-16T17:02:33.230Z,5.60
2022-11-16T17:05:10.993Z,5.60
2022-11-16T17:07:44.847Z,5.60
2022-11-16T17:10:19.627Z,5.60
2022-11-16T17:12:56.312Z,5.60
2022-11-16T17:15:30.103Z,5.60
2022-11-16T17:18:03.928Z,5.60
2022-11-16T17:20:45.219Z,5.50
2022-11-16T17:23:18.486Z,5.50
2022-11-16T17:25:52.445Z,5.50
2022-11-16T17:28:26.177Z,5.50
2022-11-16T17:31:03.481Z,5.50
2022-11-16T17:33:37.684Z,5.50
2022-11-16T17:36:15.593Z,5.80
2022-11-16T17:38:48.093Z,5.50
2022-11-16T17:41:22.546Z,5.50
2022-11-16T17:43:55.882Z,5.50
2022-11-16T17:46:30.417Z,5.50
2022-11-16T17:49:03.685Z,5.60
2022-11-16T17:51:41.605Z,5.50
2022-11-16T17:54:14.638Z,5.50
2022-11-16T17:56:49.660Z,5.50
2022-11-16T17:59:29.184Z,5.50
2022-11-16T18:02:04.424Z,5.50
2022-11-16T18:04:37.997Z,5.50
2022-11-16T18:07:14.853Z,5.50
2022-11-16T18:09:49.348Z,5.50
2022-11-16T18:12:24.317Z,5.50
2022-11-16T18:15:26.467Z,5.40
2022-11-16T18:17:53.183Z,5.40
2022-11-16T18:20:28.055Z,5.40
2022-11-16T18:23:05.812Z,5.30
2022-11-16T18:25:40.334Z,5.30
2022-11-16T18:28:15.317Z,5.30
2022-11-16T18:30:49.201Z,5.30
2022-11-16T18:33:27.789Z,5.30
2022-11-16T18:36:04.074Z,5.20
2022-11-16T18:38:40.536Z,5.20
2022-11-16T18:41:12.702Z,5.30
2022-11-16T18:43:50.805Z,6.10
2022-11-16T18:46:25.785Z,5.20
2022-11-16T18:49:00.097Z,5.20
2022-11-16T18:51:34.094Z,5.10
2022-11-16T18:54:12.052Z,5.10
2022-11-16T18:56:46.192Z,5.10
2022-11-16T18:59:24.087Z,5.10
2022-11-16T19:01:58.459Z,5.10
2022-11-16T19:04:34.739Z,5.10
2022-11-16T19:07:09.081Z,5.00
2022-11-16T19:09:45.865Z,5.10
2022-11-16T19:12:22.004Z,5.00
2022-11-16T19:14:55.730Z,5.00
2022-11-16T19:17:59.309Z,5.00
2022-11-16T19:20:33.635Z,5.00
2022-11-16T19:23:06.851Z,5.00
2022-11-16T19:25:44.023Z,5.00
2022-11-16T19:28:18.121Z,4.90
2022-11-16T19:30:52.455Z,4.90
2022-11-16T19:33:26.615Z,4.90
2022-11-16T19:35:59.174Z,4.90
2022-11-16T19:38:33.800Z,4.90
2022-11-16T19:41:11.694Z,4.90
2022-11-16T19:43:46.400Z,4.80
2022-11-16T19:46:21.636Z,4.80
2022-11-16T19:48:56.571Z,4.80
2022-11-16T19:51:29.498Z,4.80
2022-11-16T19:54:02.568Z,4.70
2022-11-16T19:56:37.839Z,4.70
2022-11-16T19:59:12.431Z,4.70
2022-11-16T20:01:46.441Z,4.70
2022-11-16T20:04:20.255Z,4.70
2022-11-16T20:06:53.655Z,4.70
2022-11-16T20:09:28.159Z,4.70
2022-11-16T20:12:05.074Z,4.70
2022-11-16T20:14:39.648Z,4.60
2022-11-16T20:17:14.847Z,4.70
2022-11-16T20:19:49.272Z,4.60
2022-11-16T20:22:25.056Z,4.60
2022-11-16T20:24:58.982Z,4.60
2022-11-16T20:27:36.642Z,4.60
2022-11-16T20:30:14.118Z,4.60
2022-11-16T20:32:50.187Z,4.60
2022-11-16T20:35:28.136Z,4.60
2022-11-16T20:38:02.672Z,4.60
2022-11-16T20:40:36.300Z,4.60
2022-11-16T20:43:14.781Z,4.60
2022-11-16T20:45:50.253Z,4.60
2022-11-16T20:48:25.363Z,4.50
2022-11-16T20:51:00.031Z,4.60
2022-11-16T20:53:34.623Z,4.50
2022-11-16T20:56:14.653Z,4.60
2022-11-16T20:58:52.056Z,4.60
2022-11-16T21:01:35.877Z,4.60
2022-11-16T21:04:12.764Z,4.50
2022-11-16T21:06:52.323Z,4.60
2022-11-16T21:09:54.170Z,4.50
2022-11-16T21:12:44.205Z,4.50
2022-11-16T21:15:25.156Z,4.50
2022-11-16T21:18:02.360Z,4.50
2022-11-16T21:20:41.053Z,4.50
2022-11-16T21:23:20.433Z,4.60
2022-11-16T21:25:59.419Z,4.60
2022-11-16T21:28:34.222Z,4.60
2022-11-16T21:31:10.753Z,4.50
2022-11-16T21:33:50.834Z,4.50
2022-11-16T21:36:28.876Z,4.50
2022-11-16T21:39:03.919Z,4.50
2022-11-16T21:41:39.277Z,4.50
2022-11-16T21:44:13.600Z,4.50
2022-11-16T21:46:51.083Z,4.40
2022-11-16T21:49:28.138Z,4.40
2022-11-16T21:52:01.853Z,4.40
2022-11-16T21:54:56.214Z,4.40
2022-11-16T21:57:30.376Z,4.40
2022-11-16T22:00:04.188Z,4.40
2022-11-16T22:02:45.103Z,4.40
2022-11-16T22:05:33.968Z,4.40
2022-11-16T22:08:08.273Z,4.40
2022-11-16T22:10:41.841Z,4.40
2022-11-16T22:13:16.689Z,4.40
2022-11-16T22:15:50.936Z,4.40
2022-11-16T22:18:25.156Z,4.40
2022-11-16T22:21:02.756Z,4.40
2022-11-16T22:23:37.286Z,4.40
2022-11-16T22:26:12.402Z,4.40
2022-11-16T22:28:46.067Z,4.40
2022-11-16T22:31:20.768Z,4.40
2022-11-16T22:33:55.630Z,4.40
2022-11-16T22:36:32.510Z,4.40
2022-11-16T22:39:06.300Z,4.30
2022-11-16T22:41:39.896Z,4.30
2022-11-16T22:44:14.420Z,4.30
2022-11-16T22:46:49.694Z,4.30
2022-11-16T22:49:25.095Z,4.30
2022-11-16T22:52:01.806Z,4.30
2022-11-16T22:54:38.168Z,4.30
2022-11-16T22:57:11.934Z,4.30
2022-11-16T22:59:46.393Z,4.30
2022-11-16T23:02:20.193Z,4.30
2022-11-16T23:04:53.808Z,4.30
2022-11-16T23:07:30.583Z,4.20
2022-11-16T23:10:03.043Z,4.20
2022-11-16T23:12:51.758Z,4.30
2022-11-16T23:15:38.371Z,4.30
2022-11-16T23:18:11.953Z,4.30
2022-11-16T23:20:58.742Z,4.30
2022-11-16T23:23:47.836Z,4.30
2022-11-16T23:26:34.030Z,4.30
2022-11-16T23:29:08.711Z,4.30
2022-11-16T23:31:40.983Z,4.30
2022-11-16T23:34:15.535Z,4.30
2022-11-16T23:36:47.514Z,4.30
2022-11-16T23:39:24.176Z,4.30
2022-11-16T23:42:10.302Z,4.20
2022-11-16T23:44:44.663Z,4.30
2022-11-16T23:47:19.479Z,4.20
2022-11-16T23:49:53.224Z,4.20
2022-11-16T23:52:26.946Z,4.20
2022-11-16T23:55:04.477Z,4.20
2022-11-16T23:57:37.942Z,4.20
